TENO2: Tenkiller Lake

Data processed at Thu Jun 14 2018 23:31


All information presented herein is the property of the government of the United States of America and may be revised or deleted at any time without prior notice.
Dissemination of this information without the expressed written consent of the Public Affairs Office, Tulsa District U.S. Army Corps of Engineers is strictly prohibited.
These data are gathered electronically and, as presented, have not undergone any form of quality control. These data are not guaranteed to be valid or correct.
Go to home page.
Go to station list.

Upstream stations:

Downstream station:
Previous Day
Next Day
Current Day
    
SHEF ID:       TENO2     Tenkiller Lake
STATION TYPE:  Reservoir
Normal Pool:  Bottom =   594.50, Top =   632.00

               PRECIP PRECIP(A) ELEVATION   STORAGE   TW-ELEV    INFLOW   RELEASE  AIR-TEMP  WIND-DIRWIND-SPEED REL-HUMID SOLAR-RAD   VOLTAGE  BAT-LOAD
                   in        in        ft     ac-ft        ft       cfs       cfs         F       deg       mph         %      W/m2      volt      volt
              Ccp-Rev   Ccp-Rev   Ccp-Rev   Ccp-Rev   Ccp-Rev  Regi-Rev  Regi-Rev   Ccp-Rev   Ccp-Rev   Ccp-Rev   Ccp-Rev   Ccp-Rev   Ccp-Rev   Ccp-Rev
(US/Central)
06/12 00:00      0.00      0.00    632.64    676976    482.04       458        15     76.24    178.70      0.33     92.78      0.00     13.78     13.30
06/12 01:00      0.00      0.00    632.64    676976    482.04       403        15     78.12    296.60      0.12     87.05      1.00     13.78     13.30
06/12 02:00      0.00      0.00    632.65    677114    482.04       347        15     77.90    271.80      0.28     85.83      0.00     13.78     13.30
06/12 03:00      0.00      0.00    632.64    676976    482.03       347        15     79.11    295.10      0.55     81.74      0.00     13.78     13.30
06/12 04:00      0.00      0.00    632.64    676976    482.03       347        15     78.67    301.80      0.68     83.26      0.00     13.78     13.30
06/12 05:00      0.00      0.00    632.65    677114    482.03       347        15     77.13    296.60      0.34     86.92      0.00     13.78     13.30
06/12 06:00      0.00      0.00    632.65    677114    482.03       347        15     74.16    156.90      0.19     96.20      0.00     13.78     13.30
06/12 07:00      0.09      0.23    632.75    678486    482.04      1164        15     69.44    198.40      2.89     99.80      1.00     13.78     13.30
06/12 08:00      0.15      0.24    632.65    677114    482.04      1035        15     68.77    216.00      3.46     99.87      1.00     13.78     13.30
06/12 09:00      0.07      0.11    632.69    677663    482.04      1053        15     68.67    221.20      2.51     99.80      8.00     13.78     13.30
06/12 10:00      0.05      0.04    632.74    678349    482.04      1071        15     69.22    245.00     15.09    100.23     46.00     13.78     13.18
06/12 11:00      0.05      0.02    632.71    677937    482.04      1072        15     70.09    218.30      1.65     94.13    113.00     13.78     13.24
06/12 12:00      0.03      0.00    632.72    678074    482.52       256        15     74.93    245.40      1.10     85.28    424.00     13.78     13.24
06/12 13:00      0.03      0.00    632.72    678074    484.36       220       900     80.20    223.90      2.09     69.10    678.00     13.78     13.18
06/12 14:00      0.02      0.00    632.66    677251    486.87       199      3400     80.76    205.50      1.50     70.93    744.00     13.78     13.18
06/12 15:00      0.01      0.00    632.69    677663    487.01       178      3580     83.07    234.50      0.31     65.38    612.00     13.78     13.18
06/12 16:00      0.02      0.00    632.65    677114    486.97       259      3580     83.95    153.50      0.56     60.55    675.00     13.78     13.18
06/12 17:00      0.01      0.00    632.62    676702    487.03       341      3580     84.16    127.00      0.57     66.48    519.00     13.78     13.18
06/12 18:00      0.01      0.00    632.62    676702    486.67       187      3580     83.07    103.90      1.20     70.50    310.00     13.78     13.18
06/12 19:00      0.01      0.00    632.59    676290    485.78       204      2800     81.52    249.30      0.09     81.06    210.00     13.78     13.18
06/12 20:00      0.00      0.00    632.61    676564    482.36       410       250     77.68    156.00      0.40     93.27     42.00     13.78     13.24
06/12 21:00      0.00      0.00    632.59    676290    482.11       327        15     75.04    162.90      0.40    100.11      5.00     13.78     13.30
06/12 22:00      0.01      0.00    632.60    676427    482.07       243        15     73.62    171.10      0.40    100.29      0.00     13.79     13.24
06/12 23:00      0.00      0.00    632.61    676564    482.05       296        15     72.52    157.90      0.40    100.42      1.00     13.78     13.30